This demonstration page uses our WeatherBlox Daily Observations layout. Learn more.

Left ArrowRight Arrow

38.83388, -104.82136

Hourly Observations for April 4, 2022

Temp ( °F °C ) Dew Point ( °F °C ) Humidity (%) Winds ( mph kmh ) Pressure ( in mb ) Visibility ( mi km ) Precip ( " mm )
2:58 am 02:58 Cloudy 36 2.1 33 0.8 91 91 Calm N/A 10 16 0.00 0.00
3:58 am 03:58 Mostly Cloudy 34 0.9 33 0.8 99 99 Calm N/A 10 16 0.00 0.00
4:33 am 04:33 Cloudy 36 2 36 2 100 100 ESE 6 9 N/A 10 16 0.00 0.00
4:58 am 04:58 Cloudy 35 1.6 35 1.6 100 100 E 6 9 N/A 10 16 0.00 0.00
5:13 am 05:13 Cloudy 36 2 36 2 100 100 ENE 3 6 N/A 10 16 0.00 0.00
5:58 am 05:58 Cloudy 35 1.5 35 1.5 100 100 E 3 6 N/A 10 16 0.00 0.00
6:03 am 06:03 Cloudy 34 1 34 1 100 100 E 3 6 N/A 10 16 0.00 0.00
6:08 am 06:08 Cloudy 34 1 34 1 100 100 E 6 9 N/A 10 16 0.00 0.00
6:23 am 06:23 Cloudy 34 1 34 1 100 100 ESE 9 15 N/A 10 16 0.00 0.00
6:58 am 06:58 Cloudy 37 2.5 34 1.3 92 92 E 12 19 N/A 10 16 0.00 0.00
7:13 am 07:13 Cloudy 36 2 34 1 93 93 E 13 20 N/A 10 16 0.00 0.00
7:18 am 07:18 Cloudy 34 1 34 1 100 100 E 13 20 N/A 10 16 0.00 0.00
7:58 am 07:58 Mostly Cloudy with Fog 34 1.3 34 1.3 100 100 E 9 15 N/A 0 0 0.00 0.00
8:43 am 08:43 Cloudy 34 1 34 1 100 100 ESE 12 19 N/A 10 16 0.00 0.00
8:58 am 08:58 Cloudy 35 1.8 35 1.8 100 100 SE 10 17 N/A 10 16 0.00 0.00
9:03 am 09:03 Cloudy 36 2 36 2 100 100 SSE 9 15 N/A 10 16 0.00 0.00
9:28 am 09:28 Cloudy 37 3 37 3 100 100 E 12 19 N/A 10 16 0.00 0.00
9:33 am 09:33 Cloudy 36 2 36 2 100 100 E 9 15 N/A 10 16 0.00 0.00
9:58 am 09:58 Cloudy 37 2.5 35 1.8 95 95 ENE 8 13 N/A 10 16 0.00 0.00
10:58 am 10:58 Cloudy 37 2.9 35 1.6 91 91 E 7 11 N/A 10 16 0.00 0.00
11:53 am 11:53 Cloudy 41 5 36 2 81 81 E 7 11 N/A 10 16 0.00 0.00
11:58 am 11:58 Cloudy 41 5 36 2.4 83 83 ENE 8 13 N/A 10 16 0.00 0.00
12:08 pm 12:08 Cloudy 43 6 36 2 76 76 E 6 9 N/A 10 16 0.00 0.00
12:13 pm 12:13 Cloudy 43 6 36 2 76 76 ENE 9 15 N/A 10 16 0.00 0.00
12:23 pm 12:23 Cloudy 43 6 36 2 76 76 E 10 17 N/A 10 16 0.00 0.00
12:58 pm 12:58 Mostly Cloudy 47 8.3 36 2.3 66 66 E 8 13 N/A 10 16 0.00 0.00
1:13 pm 13:13 Partly Cloudy 50 10 36 2 58 58 ESE 7 11 N/A 10 16 0.00 0.00
1:58 pm 13:58 Sunny 50 10.1 35 1.5 55 55 E 15 24 N/A 10 16 0.00 0.00
2:58 pm 14:58 Mostly Cloudy 55 12.5 34 1.2 46 46 NE 17 28 N/A 10 16 0.00 0.00
3:53 pm 15:53 Mostly Sunny 59 15 25 -4 27 27 ESE 15 24 N/A 10 16 0.00 0.00
3:54 pm 15:54 Mostly Sunny 59 15 25 -4 27 27 SSE 13 20 N/A 10 16 0.00 0.00
3:58 pm 15:58 Mostly Sunny 58 14.5 26 -3.3 29 29 E 12 19 N/A 10 16 0.00 0.00
4:58 pm 16:58 Mostly Cloudy 58 14.3 22 -5.5 25 25 E 14 22 N/A 10 16 0.00 0.00
5:58 pm 17:58 Mostly Cloudy 57 14 11 -11.5 16 16 Calm N/A 10 16 0.00 0.00
6:58 pm 18:58 Cloudy 56 13.1 10 -12.2 16 16 S 5 7 N/A 10 16 0.00 0.00
7:58 pm 19:58 Cloudy 56 13.2 7 -13.8 14 14 SE 3 6 N/A 10 16 0.00 0.00
8:58 pm 20:58 Cloudy 55 12.8 11 -11.7 17 17 WSW 10 17 N/A 10 16 0.00 0.00
9:58 pm 21:58 Partly Cloudy 54 12 13 -10.3 20 20 SE 6 9 N/A 10 16 0.00 0.00
10:52 pm 22:52 Clear 54 12 14 -10 21 21 WNW 13 20 N/A 10 16 0.00 0.00
10:58 pm 22:58 Clear 55 12.5 14 -9.9 20 20 NW 7 11 N/A 10 16 0.00 0.00
11:58 pm 23:58 Clear 50 10.1 17 -8.1 27 27 WSW 12 19 N/A 10 16 0.00 0.00

Powered by AerisWeather